Clover, South Carolina
Current Conditions -  °F | °C
As of 5:54 AM on Saturday 22 Nov 2014 (Local Time) from KAKH Reporting Station
Clear Clear  
Wind Chill: 27°   Ceiling: Unl
Heat Index: 27°   Visibility: 10mi
Dew Point: 16°   Wind: 0mph
Humidity: 63%   Direction: NA
Pressure: 30.54"   Gusts: NA
Location:  35.11°N, 81.23°W
Report Text: KAKH 221054Z AUTO 00000KT 10SM CLR M03/M09 A3054 RMK AO2 SLP348 T10281089
Loading
Personal Weather Stations






























Interactive Weather Map New forecast layout! Learn more

10-Day Weather Forecast

Advertisements
Track Severe Weather on mobile